sensor_id;sensor_type;location;lat;lon;timestamp;P1;P2;P0
76304;PMS7003;65111;50.536;19.204;2023-04-06T00:02:16;30.50;23.00;14.00
76304;PMS7003;65111;50.536;19.204;2023-04-06T00:04:42;15.50;15.50;8.00
76304;PMS7003;65111;50.536;19.204;2023-04-06T00:07:08;28.00;22.00;15.00
76304;PMS7003;65111;50.536;19.204;2023-04-06T00:09:34;25.00;22.00;13.00
76304;PMS7003;65111;50.536;19.204;2023-04-06T00:12:00;21.00;19.00;12.67
76304;PMS7003;65111;50.536;19.204;2023-04-06T00:14:26;22.75;18.25;12.00
76304;PMS7003;65111;50.536;19.204;2023-04-06T00:16:52;24.00;21.00;13.00
76304;PMS7003;65111;50.536;19.204;2023-04-06T00:19:18;10.00;6.00;1.00
76304;PMS7003;65111;50.536;19.204;2023-04-06T00:21:43;28.00;23.00;13.50
76304;PMS7003;65111;50.536;19.204;2023-04-06T00:24:10;23.00;18.00;12.00
76304;PMS7003;65111;50.536;19.204;2023-04-06T00:26:36;20.00;14.00;6.00
76304;PMS7003;65111;50.536;19.204;2023-04-06T00:29:01;22.67;19.67;13.00
76304;PMS7003;65111;50.536;19.204;2023-04-06T00:31:28;22.00;21.00;15.00
76304;PMS7003;65111;50.536;19.204;2023-04-06T00:33:53;24.50;22.00;12.75
76304;PMS7003;65111;50.536;19.204;2023-04-06T00:36:19;27.25;25.50;15.00
76304;PMS7003;65111;50.536;19.204;2023-04-06T00:38:45;25.67;21.33;15.33
76304;PMS7003;65111;50.536;19.204;2023-04-06T00:41:11;25.00;21.00;15.50
76304;PMS7003;65111;50.536;19.204;2023-04-06T00:43:38;30.00;24.00;12.75
76304;PMS7003;65111;50.536;19.204;2023-04-06T00:46:03;22.00;19.00;12.50
76304;PMS7003;65111;50.536;19.204;2023-04-06T00:48:30;21.00;19.00;12.00
76304;PMS7003;65111;50.536;19.204;2023-04-06T00:50:58;19.00;16.00;9.00
76304;PMS7003;65111;50.536;19.204;2023-04-06T00:53:24;19.67;12.67;7.67
76304;PMS7003;65111;50.536;19.204;2023-04-06T00:55:50;20.75;20.00;12.50
76304;PMS7003;65111;50.536;19.204;2023-04-06T00:58:16;27.25;22.75;13.50
76304;PMS7003;65111;50.536;19.204;2023-04-06T01:00:42;21.50;18.50;13.00
76304;PMS7003;65111;50.536;19.204;2023-04-06T01:03:09;24.50;20.50;13.00
76304;PMS7003;65111;50.536;19.204;2023-04-06T01:05:35;17.25;15.75;11.00
76304;PMS7003;65111;50.536;19.204;2023-04-06T01:08:06;23.67;20.33;12.67
76304;PMS7003;65111;50.536;19.204;2023-04-06T01:10:33;25.00;21.00;13.00
76304;PMS7003;65111;50.536;19.204;2023-04-06T01:12:59;22.00;21.00;11.50
76304;PMS7003;65111;50.536;19.204;2023-04-06T01:15:25;21.67;18.33;10.67
76304;PMS7003;65111;50.536;19.204;2023-04-06T01:17:52;25.00;18.33;12.33
76304;PMS7003;65111;50.536;19.204;2023-04-06T01:20:18;20.33;17.33;9.33
76304;PMS7003;65111;50.536;19.204;2023-04-06T01:22:44;20.25;19.00;12.75
76304;PMS7003;65111;50.536;19.204;2023-04-06T01:25:10;18.50;17.00;12.50
76304;PMS7003;65111;50.536;19.204;2023-04-06T01:27:36;19.00;16.00;10.67
76304;PMS7003;65111;50.536;19.204;2023-04-06T01:30:02;16.00;16.00;9.50
76304;PMS7003;65111;50.536;19.204;2023-04-06T01:32:29;24.00;21.00;12.00
76304;PMS7003;65111;50.536;19.204;2023-04-06T01:34:55;21.33;16.33;9.67
76304;PMS7003;65111;50.536;19.204;2023-04-06T01:37:21;24.00;19.00;12.50
76304;PMS7003;65111;50.536;19.204;2023-04-06T01:39:47;18.75;18.75;12.00
76304;PMS7003;65111;50.536;19.204;2023-04-06T01:42:13;25.25;22.00;12.25
76304;PMS7003;65111;50.536;19.204;2023-04-06T01:44:39;22.00;21.00;15.00
76304;PMS7003;65111;50.536;19.204;2023-04-06T01:47:05;17.50;15.00;12.00
76304;PMS7003;65111;50.536;19.204;2023-04-06T01:49:31;35.00;22.00;13.67
76304;PMS7003;65111;50.536;19.204;2023-04-06T01:51:57;24.50;19.00;12.50
76304;PMS7003;65111;50.536;19.204;2023-04-06T01:54:24;18.00;15.00;9.00
76304;PMS7003;65111;50.536;19.204;2023-04-06T01:56:50;10.00;10.00;9.00
76304;PMS7003;65111;50.536;19.204;2023-04-06T01:59:17;16.00;13.00;6.00
76304;PMS7003;65111;50.536;19.204;2023-04-06T02:01:43;15.33;13.00;10.00
76304;PMS7003;65111;50.536;19.204;2023-04-06T02:04:10;15.00;13.00;10.00
76304;PMS7003;65111;50.536;19.204;2023-04-06T02:06:36;13.33;11.33;7.00
76304;PMS7003;65111;50.536;19.204;2023-04-06T02:09:02;23.50;16.00;9.50
76304;PMS7003;65111;50.536;19.204;2023-04-06T02:11:28;19.50;17.50;12.00
76304;PMS7003;65111;50.536;19.204;2023-04-06T02:13:55;21.00;18.00;10.00
76304;PMS7003;65111;50.536;19.204;2023-04-06T02:16:22;26.00;20.33;12.67
76304;PMS7003;65111;50.536;19.204;2023-04-06T02:18:49;17.75;13.50;9.75
76304;PMS7003;65111;50.536;19.204;2023-04-06T02:21:16;18.00;15.00;10.00
76304;PMS7003;65111;50.536;19.204;2023-04-06T02:23:45;10.25;10.00;7.50
76304;PMS7003;65111;50.536;19.204;2023-04-06T02:26:13;12.67;10.00;7.00
76304;PMS7003;65111;50.536;19.204;2023-04-06T02:28:39;7.00;7.00;4.00
76304;PMS7003;65111;50.536;19.204;2023-04-06T02:31:05;9.00;9.00;6.00
76304;PMS7003;65111;50.536;19.204;2023-04-06T02:33:31;18.00;18.00;7.00
76304;PMS7003;65111;50.536;19.204;2023-04-06T02:35:57;21.75;15.75;9.25
76304;PMS7003;65111;50.536;19.204;2023-04-06T02:38:23;18.50;15.50;11.00
76304;PMS7003;65111;50.536;19.204;2023-04-06T02:40:50;21.00;18.00;12.00
76304;PMS7003;65111;50.536;19.204;2023-04-06T02:43:16;15.33;12.00;9.00
76304;PMS7003;65111;50.536;19.204;2023-04-06T02:45:42;12.00;9.25;6.25
76304;PMS7003;65111;50.536;19.204;2023-04-06T02:48:08;8.33;6.67;4.67
76304;PMS7003;65111;50.536;19.204;2023-04-06T02:50:34;8.00;7.00;6.00
76304;PMS7003;65111;50.536;19.204;2023-04-06T02:53:00;7.67;6.33;4.00
76304;PMS7003;65111;50.536;19.204;2023-04-06T02:55:26;8.00;6.00;3.75
76304;PMS7003;65111;50.536;19.204;2023-04-06T02:57:52;7.50;6.75;4.00
76304;PMS7003;65111;50.536;19.204;2023-04-06T03:00:18;12.33;10.00;6.00
76304;PMS7003;65111;50.536;19.204;2023-04-06T03:02:45;8.33;7.00;3.33
76304;PMS7003;65111;50.536;19.204;2023-04-06T03:05:11;6.00;6.00;4.00
76304;PMS7003;65111;50.536;19.204;2023-04-06T03:07:37;7.67;7.67;3.67
76304;PMS7003;65111;50.536;19.204;2023-04-06T03:10:03;9.25;9.00;6.00
76304;PMS7003;65111;50.536;19.204;2023-04-06T03:12:30;10.00;9.00;6.00
76304;PMS7003;65111;50.536;19.204;2023-04-06T03:14:56;10.00;8.50;6.00
76304;PMS7003;65111;50.536;19.204;2023-04-06T03:17:22;12.33;10.00;6.67
76304;PMS7003;65111;50.536;19.204;2023-04-06T03:19:48;19.00;15.00;9.33
76304;PMS7003;65111;50.536;19.204;2023-04-06T03:22:14;12.33;9.67;6.67
76304;PMS7003;65111;50.536;19.204;2023-04-06T03:24:40;8.67;7.67;4.00
76304;PMS7003;65111;50.536;19.204;2023-04-06T03:27:06;7.00;6.50;3.75
76304;PMS7003;65111;50.536;19.204;2023-04-06T03:29:32;3.33;3.33;1.67
76304;PMS7003;65111;50.536;19.204;2023-04-06T03:31:58;7.00;7.00;5.00
76304;PMS7003;65111;50.536;19.204;2023-04-06T03:34:24;5.00;5.00;3.00
76304;PMS7003;65111;50.536;19.204;2023-04-06T03:36:50;4.00;4.00;3.00
76304;PMS7003;65111;50.536;19.204;2023-04-06T03:39:16;7.00;7.00;5.00
76304;PMS7003;65111;50.536;19.204;2023-04-06T03:41:42;6.00;4.00;3.00
76304;PMS7003;65111;50.536;19.204;2023-04-06T03:44:09;7.00;5.00;3.00
76304;PMS7003;65111;50.536;19.204;2023-04-06T03:46:36;4.25;3.75;3.00
76304;PMS7003;65111;50.536;19.204;2023-04-06T03:49:02;6.25;6.25;4.50
76304;PMS7003;65111;50.536;19.204;2023-04-06T03:51:28;5.33;3.33;1.67
76304;PMS7003;65111;50.536;19.204;2023-04-06T03:53:54;5.50;2.50;2.50
76304;PMS7003;65111;50.536;19.204;2023-04-06T03:56:20;3.00;3.00;3.00
76304;PMS7003;65111;50.536;19.204;2023-04-06T03:58:46;1.00;1.00;1.00
76304;PMS7003;65111;50.536;19.204;2023-04-06T04:01:16;6.00;1.00;1.00
76304;PMS7003;65111;50.536;19.204;2023-04-06T04:03:47;1.00;1.00;-0.50
76304;PMS7003;65111;50.536;19.204;2023-04-06T04:06:13;2.00;2.00;1.00
76304;PMS7003;65111;50.536;19.204;2023-04-06T04:08:39;3.00;3.00;1.00
76304;PMS7003;65111;50.536;19.204;2023-04-06T04:11:05;1.67;1.00;0.67
76304;PMS7003;65111;50.536;19.204;2023-04-06T04:13:31;4.00;4.00;3.00
76304;PMS7003;65111;50.536;19.204;2023-04-06T04:15:57;2.50;2.50;0.50
76304;PMS7003;65111;50.536;19.204;2023-04-06T04:18:23;8.00;3.00;3.00
76304;PMS7003;65111;50.536;19.204;2023-04-06T04:20:50;4.67;1.00;1.00
76304;PMS7003;65111;50.536;19.204;2023-04-06T04:23:16;6.00;4.00;4.00
76304;PMS7003;65111;50.536;19.204;2023-04-06T04:25:43;4.50;1.00;1.00
76304;PMS7003;65111;50.536;19.204;2023-04-06T04:28:09;0.00;0.00;0.00
76304;PMS7003;65111;50.536;19.204;2023-04-06T04:30:35;3.50;1.50;1.00
76304;PMS7003;65111;50.536;19.204;2023-04-06T04:33:01;3.25;3.00;0.00
76304;PMS7003;65111;50.536;19.204;2023-04-06T04:35:27;4.00;1.00;1.00
76304;PMS7003;65111;50.536;19.204;2023-04-06T04:37:53;1.00;1.00;0.00
76304;PMS7003;65111;50.536;19.204;2023-04-06T04:40:19;1.00;1.00;0.67
76304;PMS7003;65111;50.536;19.204;2023-04-06T04:42:46;3.00;1.00;1.00
76304;PMS7003;65111;50.536;19.204;2023-04-06T04:45:12;1.00;1.00;1.00
76304;PMS7003;65111;50.536;19.204;2023-04-06T04:47:38;3.00;3.00;1.00
76304;PMS7003;65111;50.536;19.204;2023-04-06T04:50:04;0.00;0.00;0.00
76304;PMS7003;65111;50.536;19.204;2023-04-06T04:52:31;3.00;0.75;0.75
76304;PMS7003;65111;50.536;19.204;2023-04-06T04:54:57;1.00;1.00;0.33
76304;PMS7003;65111;50.536;19.204;2023-04-06T04:57:23;3.50;3.50;3.00
76304;PMS7003;65111;50.536;19.204;2023-04-06T04:59:49;7.00;6.50;2.00
76304;PMS7003;65111;50.536;19.204;2023-04-06T05:02:16;6.00;4.00;3.33
76304;PMS7003;65111;50.536;19.204;2023-04-06T05:04:42;4.00;4.00;3.00
76304;PMS7003;65111;50.536;19.204;2023-04-06T05:07:09;2.00;1.00;1.00
76304;PMS7003;65111;50.536;19.204;2023-04-06T05:09:35;9.00;4.00;3.00
76304;PMS7003;65111;50.536;19.204;2023-04-06T05:12:15;4.00;4.00;4.00
76304;PMS7003;65111;50.536;19.204;2023-04-06T05:14:41;3.00;3.00;2.00
76304;PMS7003;65111;50.536;19.204;2023-04-06T05:17:07;3.50;3.50;2.00
76304;PMS7003;65111;50.536;19.204;2023-04-06T05:19:33;3.00;3.00;3.00
76304;PMS7003;65111;50.536;19.204;2023-04-06T05:21:59;6.00;4.67;4.00
76304;PMS7003;65111;50.536;19.204;2023-04-06T05:24:25;5.00;4.00;3.00
76304;PMS7003;65111;50.536;19.204;2023-04-06T05:26:51;9.00;4.00;4.00
76304;PMS7003;65111;50.536;19.204;2023-04-06T05:29:18;7.00;6.00;4.00
76304;PMS7003;65111;50.536;19.204;2023-04-06T05:31:44;4.00;4.00;3.00
76304;PMS7003;65111;50.536;19.204;2023-04-06T05:34:10;7.00;4.00;3.00
76304;PMS7003;65111;50.536;19.204;2023-04-06T05:36:36;9.00;6.00;4.00
76304;PMS7003;65111;50.536;19.204;2023-04-06T05:39:02;6.00;5.00;3.50
76304;PMS7003;65111;50.536;19.204;2023-04-06T05:41:28;7.00;6.00;3.50
76304;PMS7003;65111;50.536;19.204;2023-04-06T05:43:54;4.00;4.00;3.50
76304;PMS7003;65111;50.536;19.204;2023-04-06T05:46:20;9.00;9.00;5.00
76304;PMS7003;65111;50.536;19.204;2023-04-06T05:48:47;6.00;6.00;3.50
76304;PMS7003;65111;50.536;19.204;2023-04-06T05:51:13;9.00;8.00;6.00
76304;PMS7003;65111;50.536;19.204;2023-04-06T05:53:39;7.00;7.00;6.00
76304;PMS7003;65111;50.536;19.204;2023-04-06T05:56:05;9.00;9.00;7.00
76304;PMS7003;65111;50.536;19.204;2023-04-06T05:58:31;8.00;5.00;4.00
76304;PMS7003;65111;50.536;19.204;2023-04-06T06:00:58;6.00;6.00;4.00
76304;PMS7003;65111;50.536;19.204;2023-04-06T06:03:24;11.00;5.00;2.00
76304;PMS7003;65111;50.536;19.204;2023-04-06T06:05:50;8.00;7.00;4.67
76304;PMS7003;65111;50.536;19.204;2023-04-06T06:08:17;5.00;4.00;4.00
76304;PMS7003;65111;50.536;19.204;2023-04-06T06:10:42;8.33;8.33;7.00
76304;PMS7003;65111;50.536;19.204;2023-04-06T06:13:09;4.50;4.50;4.50
76304;PMS7003;65111;50.536;19.204;2023-04-06T06:15:35;9.50;9.50;7.00
76304;PMS7003;65111;50.536;19.204;2023-04-06T06:18:01;11.00;9.00;7.00
76304;PMS7003;65111;50.536;19.204;2023-04-06T06:20:27;11.00;8.00;5.00
76304;PMS7003;65111;50.536;19.204;2023-04-06T06:22:53;9.00;9.00;7.00
76304;PMS7003;65111;50.536;19.204;2023-04-06T06:25:19;8.00;8.00;5.00
76304;PMS7003;65111;50.536;19.204;2023-04-06T06:27:45;10.33;7.00;4.33
76304;PMS7003;65111;50.536;19.204;2023-04-06T06:30:11;11.00;11.00;7.00
76304;PMS7003;65111;50.536;19.204;2023-04-06T06:32:37;7.33;7.33;4.33
76304;PMS7003;65111;50.536;19.204;2023-04-06T06:35:03;12.00;11.00;7.67
76304;PMS7003;65111;50.536;19.204;2023-04-06T06:37:29;4.00;2.00;1.00
76304;PMS7003;65111;50.536;19.204;2023-04-06T06:39:55;7.50;7.50;5.00
76304;PMS7003;65111;50.536;19.204;2023-04-06T06:42:21;5.50;5.50;4.50
76304;PMS7003;65111;50.536;19.204;2023-04-06T06:44:47;10.00;7.00;5.00
76304;PMS7003;65111;50.536;19.204;2023-04-06T06:47:13;10.50;10.50;8.00
76304;PMS7003;65111;50.536;19.204;2023-04-06T06:49:39;8.00;5.00;5.00
76304;PMS7003;65111;50.536;19.204;2023-04-06T06:52:05;14.00;12.33;8.00
76304;PMS7003;65111;50.536;19.204;2023-04-06T06:54:31;18.33;16.67;11.33
76304;PMS7003;65111;50.536;19.204;2023-04-06T06:56:57;19.00;17.00;11.00
76304;PMS7003;65111;50.536;19.204;2023-04-06T06:59:23;13.00;10.50;5.00
76304;PMS7003;65111;50.536;19.204;2023-04-06T07:01:49;12.00;12.00;7.00
76304;PMS7003;65111;50.536;19.204;2023-04-06T07:04:15;18.00;18.00;12.00
76304;PMS7003;65111;50.536;19.204;2023-04-06T07:06:41;27.00;24.00;12.00
76304;PMS7003;65111;50.536;19.204;2023-04-06T07:09:07;20.00;16.00;12.50
76304;PMS7003;65111;50.536;19.204;2023-04-06T07:11:33;15.00;15.00;10.50
76304;PMS7003;65111;50.536;19.204;2023-04-06T07:13:59;26.00;19.33;13.33
76304;PMS7003;65111;50.536;19.204;2023-04-06T07:16:25;17.50;16.50;11.50
76304;PMS7003;65111;50.536;19.204;2023-04-06T07:18:51;17.00;17.00;12.50
76304;PMS7003;65111;50.536;19.204;2023-04-06T07:21:17;14.50;14.00;10.50
76304;PMS7003;65111;50.536;19.204;2023-04-06T07:23:43;24.00;20.00;12.00
76304;PMS7003;65111;50.536;19.204;2023-04-06T07:26:09;18.00;16.50;9.00
76304;PMS7003;65111;50.536;19.204;2023-04-06T07:28:35;18.00;16.50;12.50
76304;PMS7003;65111;50.536;19.204;2023-04-06T07:31:01;20.50;19.00;12.00
76304;PMS7003;65111;50.536;19.204;2023-04-06T07:33:27;18.00;15.00;11.00
76304;PMS7003;65111;50.536;19.204;2023-04-06T07:35:55;14.50;14.00;11.00
76304;PMS7003;65111;50.536;19.204;2023-04-06T07:38:22;11.00;10.00;7.50
76304;PMS7003;65111;50.536;19.204;2023-04-06T07:40:48;18.00;15.50;8.00
76304;PMS7003;65111;50.536;19.204;2023-04-06T07:43:15;13.33;13.33;10.00
76304;PMS7003;65111;50.536;19.204;2023-04-06T07:45:41;17.00;13.50;10.50
76304;PMS7003;65111;50.536;19.204;2023-04-06T07:48:07;17.67;14.33;11.00
76304;PMS7003;65111;50.536;19.204;2023-04-06T07:50:33;20.33;17.00;14.33
76304;PMS7003;65111;50.536;19.204;2023-04-06T07:52:59;18.00;17.50;10.50
76304;PMS7003;65111;50.536;19.204;2023-04-06T07:55:26;17.00;17.00;10.00
76304;PMS7003;65111;50.536;19.204;2023-04-06T07:57:52;16.00;12.00;8.00
76304;PMS7003;65111;50.536;19.204;2023-04-06T08:00:18;14.00;13.00;10.00
76304;PMS7003;65111;50.536;19.204;2023-04-06T08:02:45;16.00;16.00;10.00
76304;PMS7003;65111;50.536;19.204;2023-04-06T08:05:11;16.50;16.50;11.00
76304;PMS7003;65111;50.536;19.204;2023-04-06T08:07:37;16.00;16.00;8.00
76304;PMS7003;65111;50.536;19.204;2023-04-06T08:10:03;9.00;7.00;5.00
76304;PMS7003;65111;50.536;19.204;2023-04-06T08:12:31;13.67;13.67;9.67
76304;PMS7003;65111;50.536;19.204;2023-04-06T08:14:57;16.00;14.00;10.00
76304;PMS7003;65111;50.536;19.204;2023-04-06T08:17:24;16.00;16.00;13.00
76304;PMS7003;65111;50.536;19.204;2023-04-06T08:19:52;13.00;10.50;8.50
76304;PMS7003;65111;50.536;19.204;2023-04-06T08:22:18;16.50;14.00;10.00
76304;PMS7003;65111;50.536;19.204;2023-04-06T08:24:44;14.00;12.00;8.00
76304;PMS7003;65111;50.536;19.204;2023-04-06T08:27:10;12.00;11.00;9.00
76304;PMS7003;65111;50.536;19.204;2023-04-06T08:29:36;13.00;11.00;8.00
76304;PMS7003;65111;50.536;19.204;2023-04-06T08:32:02;7.00;5.33;2.33
76304;PMS7003;65111;50.536;19.204;2023-04-06T08:34:31;15.00;12.00;9.00
76304;PMS7003;65111;50.536;19.204;2023-04-06T08:36:58;9.00;9.00;7.00
76304;PMS7003;65111;50.536;19.204;2023-04-06T08:39:24;14.50;14.50;9.50
76304;PMS7003;65111;50.536;19.204;2023-04-06T08:41:53;11.00;8.50;7.00
76304;PMS7003;65111;50.536;19.204;2023-04-06T08:44:22;10.00;8.50;7.00
76304;PMS7003;65111;50.536;19.204;2023-04-06T08:46:48;9.00;9.00;6.00
76304;PMS7003;65111;50.536;19.204;2023-04-06T08:49:16;13.00;11.00;9.00
76304;PMS7003;65111;50.536;19.204;2023-04-06T08:51:42;15.00;10.00;7.00
76304;PMS7003;65111;50.536;19.204;2023-04-06T08:54:08;3.00;3.00;1.00
76304;PMS7003;65111;50.536;19.204;2023-04-06T08:56:37;15.00;9.00;7.00
76304;PMS7003;65111;50.536;19.204;2023-04-06T08:59:04;9.00;7.67;6.00
76304;PMS7003;65111;50.536;19.204;2023-04-06T09:01:32;12.00;9.00;6.00
76304;PMS7003;65111;50.536;19.204;2023-04-06T09:04:01;6.00;6.00;4.00
76304;PMS7003;65111;50.536;19.204;2023-04-06T09:06:30;8.00;7.00;4.00
76304;PMS7003;65111;50.536;19.204;2023-04-06T09:08:57;8.00;7.00;5.00
76304;PMS7003;65111;50.536;19.204;2023-04-06T09:11:23;6.50;6.50;5.00
76304;PMS7003;65111;50.536;19.204;2023-04-06T09:13:55;12.00;11.00;8.00
76304;PMS7003;65111;50.536;19.204;2023-04-06T09:16:22;6.67;6.67;5.00
76304;PMS7003;65111;50.536;19.204;2023-04-06T09:18:49;7.67;7.67;5.00
76304;PMS7003;65111;50.536;19.204;2023-04-06T09:21:18;6.00;6.00;5.00
76304;PMS7003;65111;50.536;19.204;2023-04-06T09:23:45;6.00;6.00;5.00
76304;PMS7003;65111;50.536;19.204;2023-04-06T09:26:17;11.00;8.00;6.00
76304;PMS7003;65111;50.536;19.204;2023-04-06T09:28:43;11.00;9.00;7.00
76304;PMS7003;65111;50.536;19.204;2023-04-06T09:31:14;7.00;6.00;4.00
76304;PMS7003;65111;50.536;19.204;2023-04-06T09:33:43;10.00;8.00;7.00
76304;PMS7003;65111;50.536;19.204;2023-04-06T09:36:10;8.00;7.00;5.00
76304;PMS7003;65111;50.536;19.204;2023-04-06T09:38:38;5.00;5.00;4.00
76304;PMS7003;65111;50.536;19.204;2023-04-06T09:41:21;4.00;4.00;3.00
76304;PMS7003;65111;50.536;19.204;2023-04-06T09:43:49;5.00;5.00;4.00
76304;PMS7003;65111;50.536;19.204;2023-04-06T09:46:16;9.33;7.67;6.00
76304;PMS7003;65111;50.536;19.204;2023-04-06T09:48:43;6.00;6.00;4.00
76304;PMS7003;65111;50.536;19.204;2023-04-06T09:51:10;6.33;6.00;4.33
76304;PMS7003;65111;50.536;19.204;2023-04-06T09:53:41;8.00;8.00;6.50
76304;PMS7003;65111;50.536;19.204;2023-04-06T09:56:11;8.00;8.00;5.00
76304;PMS7003;65111;50.536;19.204;2023-04-06T09:58:42;7.00;7.00;6.00
76304;PMS7003;65111;50.536;19.204;2023-04-06T10:01:13;5.50;5.50;4.50
76304;PMS7003;65111;50.536;19.204;2023-04-06T10:03:49;7.00;6.00;4.00
76304;PMS7003;65111;50.536;19.204;2023-04-06T10:06:22;7.00;6.33;4.67
76304;PMS7003;65111;50.536;19.204;2023-04-06T10:08:51;6.00;6.00;5.00
76304;PMS7003;65111;50.536;19.204;2023-04-06T10:11:20;7.33;7.33;5.00
76304;PMS7003;65111;50.536;19.204;2023-04-06T10:13:47;4.00;4.00;3.00
76304;PMS7003;65111;50.536;19.204;2023-04-06T10:16:15;7.67;6.00;4.67
76304;PMS7003;65111;50.536;19.204;2023-04-06T10:18:44;5.67;5.67;4.33
76304;PMS7003;65111;50.536;19.204;2023-04-06T10:21:20;7.00;7.00;5.00
76304;PMS7003;65111;50.536;19.204;2023-04-06T10:23:55;10.50;8.50;6.00
76304;PMS7003;65111;50.536;19.204;2023-04-06T10:26:24;1.00;1.00;0.00
76304;PMS7003;65111;50.536;19.204;2023-04-06T10:28:50;6.00;6.00;4.00
76304;PMS7003;65111;50.536;19.204;2023-04-06T10:31:24;9.00;7.00;5.00
76304;PMS7003;65111;50.536;19.204;2023-04-06T10:36:31;5.00;5.00;4.00
76304;PMS7003;65111;50.536;19.204;2023-04-06T10:38:59;7.00;7.00;5.50
76304;PMS7003;65111;50.536;19.204;2023-04-06T10:41:33;7.50;7.50;6.00
76304;PMS7003;65111;50.536;19.204;2023-04-06T10:44:01;8.00;7.00;4.00
76304;PMS7003;65111;50.536;19.204;2023-04-06T10:46:30;7.00;6.00;3.00
76304;PMS7003;65111;50.536;19.204;2023-04-06T10:49:09;7.00;6.00;5.00
76304;PMS7003;65111;50.536;19.204;2023-04-06T10:51:37;8.00;8.00;5.50
76304;PMS7003;65111;50.536;19.204;2023-04-06T10:54:05;5.00;5.00;3.00
76304;PMS7003;65111;50.536;19.204;2023-04-06T10:56:33;6.00;6.00;5.00
76304;PMS7003;65111;50.536;19.204;2023-04-06T10:59:02;3.67;3.33;2.00
76304;PMS7003;65111;50.536;19.204;2023-04-06T11:01:28;6.00;5.67;4.67
76304;PMS7003;65111;50.536;19.204;2023-04-06T11:03:55;6.00;5.00;4.00
76304;PMS7003;65111;50.536;19.204;2023-04-06T11:06:26;6.00;5.67;5.00
76304;PMS7003;65111;50.536;19.204;2023-04-06T11:08:55;6.00;5.33;4.67
76304;PMS7003;65111;50.536;19.204;2023-04-06T11:11:22;6.67;6.00;6.00
76304;PMS7003;65111;50.536;19.204;2023-04-06T11:13:55;7.00;7.00;4.50
76304;PMS7003;65111;50.536;19.204;2023-04-06T11:21:19;10.00;9.00;6.00
76304;PMS7003;65111;50.536;19.204;2023-04-06T11:23:46;8.00;8.00;4.00
76304;PMS7003;65111;50.536;19.204;2023-04-06T11:26:12;9.00;9.00;6.00
76304;PMS7003;65111;50.536;19.204;2023-04-06T11:28:40;10.00;6.00;5.00
76304;PMS7003;65111;50.536;19.204;2023-04-06T11:31:09;5.00;5.00;4.00
76304;PMS7003;65111;50.536;19.204;2023-04-06T11:33:36;7.00;7.00;5.00
76304;PMS7003;65111;50.536;19.204;2023-04-06T11:36:04;6.00;6.00;5.00
76304;PMS7003;65111;50.536;19.204;2023-04-06T11:38:31;8.50;8.00;5.00
76304;PMS7003;65111;50.536;19.204;2023-04-06T11:40:57;12.00;10.00;8.00
76304;PMS7003;65111;50.536;19.204;2023-04-06T11:43:29;8.00;8.00;5.00
76304;PMS7003;65111;50.536;19.204;2023-04-06T11:46:03;7.00;7.00;6.00
76304;PMS7003;65111;50.536;19.204;2023-04-06T11:48:29;6.00;6.00;5.00
76304;PMS7003;65111;50.536;19.204;2023-04-06T11:50:59;5.00;5.00;5.00
76304;PMS7003;65111;50.536;19.204;2023-04-06T11:53:27;7.33;4.00;3.33
76304;PMS7003;65111;50.536;19.204;2023-04-06T11:55:55;8.33;8.33;5.00
76304;PMS7003;65111;50.536;19.204;2023-04-06T11:58:22;5.00;5.00;4.00
76304;PMS7003;65111;50.536;19.204;2023-04-06T12:00:48;8.00;8.00;5.00
76304;PMS7003;65111;50.536;19.204;2023-04-06T12:03:14;7.00;7.00;4.00
76304;PMS7003;65111;50.536;19.204;2023-04-06T12:05:40;5.00;5.00;4.00
76304;PMS7003;65111;50.536;19.204;2023-04-06T12:08:06;7.00;7.00;4.00
76304;PMS7003;65111;50.536;19.204;2023-04-06T12:10:32;4.50;4.50;3.00
76304;PMS7003;65111;50.536;19.204;2023-04-06T12:12:58;8.50;8.00;6.00
76304;PMS7003;65111;50.536;19.204;2023-04-06T12:15:23;7.00;7.00;4.00
76304;PMS7003;65111;50.536;19.204;2023-04-06T12:17:49;8.00;5.00;2.00
76304;PMS7003;65111;50.536;19.204;2023-04-06T12:20:15;7.00;3.33;2.00
76304;PMS7003;65111;50.536;19.204;2023-04-06T12:22:41;7.50;5.00;4.00
76304;PMS7003;65111;50.536;19.204;2023-04-06T12:25:07;7.00;7.00;5.00
76304;PMS7003;65111;50.536;19.204;2023-04-06T12:27:34;7.67;7.00;4.33
76304;PMS7003;65111;50.536;19.204;2023-04-06T12:30:00;10.00;5.50;5.00
76304;PMS7003;65111;50.536;19.204;2023-04-06T12:32:26;6.33;6.33;4.00
76304;PMS7003;65111;50.536;19.204;2023-04-06T12:34:52;7.00;5.50;4.00
76304;PMS7003;65111;50.536;19.204;2023-04-06T12:37:18;7.00;6.00;4.00
76304;PMS7003;65111;50.536;19.204;2023-04-06T12:39:44;6.67;4.33;3.67
76304;PMS7003;65111;50.536;19.204;2023-04-06T12:42:11;7.00;7.00;5.00
76304;PMS7003;65111;50.536;19.204;2023-04-06T12:44:38;4.00;4.00;3.00
76304;PMS7003;65111;50.536;19.204;2023-04-06T12:47:04;6.33;6.33;3.67
76304;PMS7003;65111;50.536;19.204;2023-04-06T12:49:30;8.00;6.00;4.00
76304;PMS7003;65111;50.536;19.204;2023-04-06T12:51:57;7.00;7.00;6.00
76304;PMS7003;65111;50.536;19.204;2023-04-06T12:54:23;10.67;7.00;5.33
76304;PMS7003;65111;50.536;19.204;2023-04-06T12:56:52;7.00;6.00;4.00
76304;PMS7003;65111;50.536;19.204;2023-04-06T12:59:17;6.00;6.00;4.00
76304;PMS7003;65111;50.536;19.204;2023-04-06T13:01:44;7.00;7.00;6.00
76304;PMS7003;65111;50.536;19.204;2023-04-06T13:04:10;7.00;7.00;6.00
76304;PMS7003;65111;50.536;19.204;2023-04-06T13:06:36;8.00;6.50;5.00
76304;PMS7003;65111;50.536;19.204;2023-04-06T13:09:01;9.00;6.00;4.00
76304;PMS7003;65111;50.536;19.204;2023-04-06T13:11:29;3.00;3.00;1.00
76304;PMS7003;65111;50.536;19.204;2023-04-06T13:13:55;6.50;6.50;4.00
76304;PMS7003;65111;50.536;19.204;2023-04-06T13:16:21;8.33;4.00;4.00
76304;PMS7003;65111;50.536;19.204;2023-04-06T13:18:47;5.50;4.00;4.00
76304;PMS7003;65111;50.536;19.204;2023-04-06T13:21:14;4.67;4.67;3.33
76304;PMS7003;65111;50.536;19.204;2023-04-06T13:23:43;6.00;6.00;4.00
76304;PMS7003;65111;50.536;19.204;2023-04-06T13:26:09;6.00;6.00;4.00
76304;PMS7003;65111;50.536;19.204;2023-04-06T13:28:36;6.33;6.33;4.67
76304;PMS7003;65111;50.536;19.204;2023-04-06T13:31:05;8.00;7.00;5.00
76304;PMS7003;65111;50.536;19.204;2023-04-06T13:33:31;9.33;7.00;6.67
76304;PMS7003;65111;50.536;19.204;2023-04-06T13:35:58;10.00;10.00;9.00
76304;PMS7003;65111;50.536;19.204;2023-04-06T13:38:25;4.67;4.00;3.67
76304;PMS7003;65111;50.536;19.204;2023-04-06T13:40:51;4.00;4.00;3.00
76304;PMS7003;65111;50.536;19.204;2023-04-06T13:43:17;6.50;6.50;4.00
76304;PMS7003;65111;50.536;19.204;2023-04-06T13:45:50;5.33;5.33;3.67
76304;PMS7003;65111;50.536;19.204;2023-04-06T13:48:17;9.00;6.00;5.00
76304;PMS7003;65111;50.536;19.204;2023-04-06T13:50:43;4.67;4.67;3.00
76304;PMS7003;65111;50.536;19.204;2023-04-06T13:53:10;7.00;5.33;4.00
76304;PMS7003;65111;50.536;19.204;2023-04-06T13:55:36;6.00;6.00;4.00
76304;PMS7003;65111;50.536;19.204;2023-04-06T13:58:02;4.00;4.00;3.00
76304;PMS7003;65111;50.536;19.204;2023-04-06T14:00:28;5.00;5.00;3.50
76304;PMS7003;65111;50.536;19.204;2023-04-06T14:02:54;9.00;7.00;4.00
76304;PMS7003;65111;50.536;19.204;2023-04-06T14:05:20;9.00;4.00;4.00